Time;durP1;ratioP1;P1;durP2;ratioP2;P2;SDS_P1;SDS_P2;PMS_P1;PMS_P2;Temp;Humidity;BMP_temperature;BMP_pressure;BME280_temperature;BME280_humidity;BME280_pressure;Samples;Min_cycle;Max_cycle;Signal;HPM_P1;HPM_P2
2023/10/17 00:02:49;;;;;;;5.18;2.95;;;;;;;;;;6242315;28;20080;-76
2023/10/17 00:05:54;;;;;;;4.88;2.85;;;;;;;;;;6255989;28;20045;-79
2023/10/17 00:08:56;;;;;;;5.07;3.10;;;;;;;;;;6250661;28;20045;-81
2023/10/17 00:12:00;;;;;;;6.43;2.90;;;;;;;;;;6236397;28;20040;-80
2023/10/17 00:15:16;;;;;;;4.90;3.17;;;;;;;;;;6253096;28;20051;-77
2023/10/17 00:18:24;;;;;;;6.38;3.25;;;;;;;;;;6245359;28;20606;-80
2023/10/17 00:21:27;;;;;;;5.95;2.63;;;;;;;;;;6219732;28;20057;-79
2023/10/17 00:24:29;;;;;;;4.50;2.73;;;;;;;;;;6221406;28;20046;-80
2023/10/17 00:27:31;;;;;;;6.68;3.03;;;;;;;;;;6237092;28;20126;-78
2023/10/17 00:30:33;;;;;;;4.32;2.90;;;;;;;;;;6231294;28;20469;-78
2023/10/17 00:33:37;;;;;;;4.35;3.08;;;;;;;;;;6242214;28;20041;-77
2023/10/17 00:37:00;;;;;;;6.80;2.60;;;;;;;;;;6218127;28;20045;-77
2023/10/17 00:40:05;;;;;;;6.90;2.80;;;;;;;;;;6224644;28;20049;-76
2023/10/17 00:43:11;;;;;;;6.32;3.38;;;;;;;;;;6247584;28;20037;-76
2023/10/17 00:46:13;;;;;;;5.43;3.22;;;;;;;;;;6251453;28;20041;-76
2023/10/17 00:49:37;;;;;;;6.25;3.40;;;;;;;;;;6217413;28;20048;-79
2023/10/17 00:52:40;;;;;;;5.13;2.97;;;;;;;;;;6230383;28;20124;-78
2023/10/17 00:55:55;;;;;;;4.30;2.97;;;;;;;;;;6224769;28;20129;-78
2023/10/17 00:58:58;;;;;;;5.80;2.92;;;;;;;;;;6239855;28;20037;-78
2023/10/17 01:02:07;;;;;;;4.30;2.72;;;;;;;;;;6236464;28;20055;-79
2023/10/17 01:05:11;;;;;;;5.97;2.60;;;;;;;;;;6229721;28;20041;-79
2023/10/17 01:08:13;;;;;;;;;;;;;;;;;;6236816;28;20041;-77
2023/10/17 01:11:20;;;;;;;4.28;2.55;;;;;;;;;;6250730;28;19987;-77
2023/10/17 01:14:23;;;;;;;6.03;2.90;;;;;;;;;;6248493;28;20069;-76
2023/10/17 01:17:26;;;;;;;6.32;2.85;;;;;;;;;;6236811;28;22422;-78
2023/10/17 01:20:29;;;;;;;4.40;2.55;;;;;;;;;;6257297;28;20057;-78
2023/10/17 01:23:31;;;;;;;4.45;2.30;;;;;;;;;;6234167;28;20480;-78
2023/10/17 01:26:37;;;;;;;6.55;3.17;;;;;;;;;;6248315;28;20056;-78
2023/10/17 01:29:44;;;;;;;9.18;3.20;;;;;;;;;;6255504;28;20166;-78
2023/10/17 01:32:48;;;;;;;7.13;3.40;;;;;;;;;;6237069;28;20434;-79
2023/10/17 01:35:52;;;;;;;11.43;4.10;;;;;;;;;;6245827;28;20049;-77
2023/10/17 01:38:55;;;;;;;6.63;2.78;;;;;;;;;;6240335;28;20044;-79
2023/10/17 01:41:57;;;;;;;6.47;3.20;;;;;;;;;;6229831;28;20426;-79
2023/10/17 01:44:59;;;;;;;4.93;2.60;;;;;;;;;;6252776;28;20040;-78
2023/10/17 01:48:00;;;;;;;5.53;3.22;;;;;;;;;;6230823;28;20507;-79
2023/10/17 01:51:06;;;;;;;7.72;3.95;;;;;;;;;;6233342;28;20496;-79
2023/10/17 01:54:09;;;;;;;8.38;3.15;;;;;;;;;;6246550;28;20060;-78
2023/10/17 01:57:12;;;;;;;9.00;3.47;;;;;;;;;;6237252;28;20041;-78
2023/10/17 02:00:24;;;;;;;;;;;;;;;;;;6242133;28;20049;-78
2023/10/17 02:03:26;;;;;;;13.57;3.95;;;;;;;;;;6240302;28;19927;-78
2023/10/17 02:06:30;;;;;;;10.25;4.15;;;;;;;;;;6229344;28;20049;-81
2023/10/17 02:12:37;;;;;;;11.18;4.18;;;;;;;;;;6227543;28;20041;-80
2023/10/17 02:15:39;;;;;;;12.93;4.20;;;;;;;;;;6242404;28;20060;-77
2023/10/17 02:18:41;;;;;;;9.40;3.58;;;;;;;;;;6229063;28;20128;-79
2023/10/17 02:21:49;;;;;;;8.10;3.85;;;;;;;;;;6221515;28;20044;-79
2023/10/17 02:24:55;;;;;;;18.65;4.20;;;;;;;;;;6243703;28;20062;-78
2023/10/17 02:27:56;;;;;;;7.70;3.78;;;;;;;;;;6222928;28;20045;-77
2023/10/17 02:30:58;;;;;;;11.13;3.83;;;;;;;;;;6241837;28;20533;-79
2023/10/17 02:34:00;;;;;;;12.55;4.00;;;;;;;;;;6235352;28;20047;-78
2023/10/17 02:37:04;;;;;;;14.10;4.00;;;;;;;;;;6233278;28;20140;-78
2023/10/17 02:40:21;;;;;;;9.48;4.00;;;;;;;;;;6234736;28;20049;-79
2023/10/17 02:43:22;;;;;;;9.38;3.88;;;;;;;;;;6233458;28;20073;-78
2023/10/17 02:46:28;;;;;;;7.32;3.42;;;;;;;;;;6233800;28;20357;-80
2023/10/17 02:49:36;;;;;;;10.23;4.28;;;;;;;;;;6248667;28;20045;-80
2023/10/17 02:52:38;;;;;;;9.02;3.85;;;;;;;;;;6229274;28;20456;-79
2023/10/17 02:55:40;;;;;;;8.30;4.75;;;;;;;;;;6243287;28;20084;-77
2023/10/17 02:58:42;;;;;;;6.63;3.83;;;;;;;;;;6229301;28;20624;-79
2023/10/17 03:01:45;;;;;;;8.85;4.07;;;;;;;;;;6253870;28;20048;-78
2023/10/17 03:04:47;;;;;;;;;;;;;;;;;;6218862;28;20045;-79
2023/10/17 03:07:51;;;;;;;7.93;3.65;;;;;;;;;;6233104;28;19920;-80
2023/10/17 03:10:57;;;;;;;6.85;3.95;;;;;;;;;;6244952;28;20124;-76
2023/10/17 03:14:00;;;;;;;7.85;4.05;;;;;;;;;;6255154;28;20045;-78
2023/10/17 03:17:02;;;;;;;9.02;3.90;;;;;;;;;;6236711;28;20491;-77
2023/10/17 03:20:08;;;;;;;7.35;3.90;;;;;;;;;;6247142;28;20041;-76
2023/10/17 03:23:10;;;;;;;13.00;4.18;;;;;;;;;;6237507;28;20048;-79
2023/10/17 03:26:12;;;;;;;10.63;4.47;;;;;;;;;;6223596;28;20055;-76
2023/10/17 03:29:19;;;;;;;9.10;4.10;;;;;;;;;;6240674;28;20045;-78
2023/10/17 03:32:23;;;;;;;9.52;3.92;;;;;;;;;;6252372;28;20521;-76
2023/10/17 03:35:26;;;;;;;7.90;4.47;;;;;;;;;;6234710;28;20053;-77
2023/10/17 03:38:33;;;;;;;9.00;4.32;;;;;;;;;;6239801;28;20052;-77
2023/10/17 03:41:37;;;;;;;10.60;5.20;;;;;;;;;;6228358;28;20044;-76
2023/10/17 03:44:39;;;;;;;;;;;;;;;;;;6239319;28;20053;-76
2023/10/17 03:47:42;;;;;;;8.52;4.38;;;;;;;;;;6259679;28;19929;-77
2023/10/17 03:53:48;;;;;;;9.68;4.88;;;;;;;;;;6231466;28;20057;-78
2023/10/17 03:56:56;;;;;;;10.98;4.85;;;;;;;;;;6251179;28;20041;-76
2023/10/17 03:59:58;;;;;;;10.30;5.13;;;;;;;;;;6239810;28;20138;-78
2023/10/17 04:03:04;;;;;;;10.02;4.82;;;;;;;;;;6230604;28;20052;-80
2023/10/17 04:09:27;;;;;;;9.13;4.38;;;;;;;;;;6245229;28;20140;-79
2023/10/17 04:12:39;;;;;;;8.85;4.10;;;;;;;;;;6245376;28;20124;-79
2023/10/17 04:15:43;;;;;;;10.60;5.40;;;;;;;;;;6234716;28;20041;-80
2023/10/17 04:18:51;;;;;;;12.15;5.05;;;;;;;;;;6246322;28;20045;-79
2023/10/17 04:22:02;;;;;;;9.85;4.45;;;;;;;;;;6247327;28;20694;-80
2023/10/17 04:28:41;;;;;;;11.13;5.55;;;;;;;;;;6249269;28;20461;-78
2023/10/17 04:31:47;;;;;;;10.05;5.50;;;;;;;;;;6231465;28;20213;-79
2023/10/17 04:34:49;;;;;;;9.30;4.50;;;;;;;;;;6232099;28;20155;-77
2023/10/17 04:38:11;;;;;;;7.28;4.10;;;;;;;;;;6243482;28;20150;-80
2023/10/17 04:44:33;;;;;;;10.40;5.07;;;;;;;;;;6235467;28;20502;-77
2023/10/17 04:47:38;;;;;;;12.27;5.90;;;;;;;;;;6235620;28;20124;-80
2023/10/17 04:50:45;;;;;;;9.20;5.25;;;;;;;;;;6235769;28;20045;-80
2023/10/17 04:53:48;;;;;;;11.55;5.47;;;;;;;;;;6236080;28;20056;-79
2023/10/17 04:56:55;;;;;;;8.63;5.47;;;;;;;;;;6241270;28;20041;-78
2023/10/17 05:00:10;;;;;;;13.95;6.07;;;;;;;;;;6240805;28;20037;-79
2023/10/17 05:03:20;;;;;;;6.82;3.70;;;;;;;;;;6235459;28;20131;-76
2023/10/17 05:06:38;;;;;;;6.93;3.50;;;;;;;;;;6244094;28;20059;-77
2023/10/17 06:16:53;;;;;;;22.38;10.70;;;;;;;;;;6251368;28;20123;-76
2023/10/17 06:19:58;;;;;;;17.20;8.45;;;;;;;;;;6248505;28;20529;-79
2023/10/17 06:35:44;;;;;;;10.38;4.82;;;;;;;;;;6231778;28;20521;-78
2023/10/17 06:38:46;;;;;;;13.48;5.65;;;;;;;;;;6215433;28;20048;-78
2023/10/17 06:41:51;;;;;;;9.48;5.28;;;;;;;;;;6240339;28;20049;-81
2023/10/17 06:45:07;;;;;;;13.10;5.53;;;;;;;;;;6177736;28;20047;-81
2023/10/17 06:48:34;;;;;;;10.10;5.70;;;;;;;;;;6209065;28;20044;-81
2023/10/17 06:51:36;;;;;;;9.80;5.40;;;;;;;;;;6215868;28;20046;-80
2023/10/17 06:54:50;;;;;;;9.70;5.33;;;;;;;;;;6215332;28;20567;-79
2023/10/17 06:57:52;;;;;;;;;;;;;;;;;;6247174;28;20463;-79
2023/10/17 07:00:56;;;;;;;12.32;7.78;;;;;;;;;;6235503;28;19921;-81
2023/10/17 07:03:59;;;;;;;12.00;6.85;;;;;;;;;;6239492;28;20049;-81
2023/10/17 07:07:03;;;;;;;14.88;8.38;;;;;;;;;;6233902;28;20038;-80
2023/10/17 07:13:50;;;;;;;18.67;8.60;;;;;;;;;;6245879;28;20123;-79
2023/10/17 07:17:17;;;;;;;23.70;14.52;;;;;;;;;;6236580;28;20056;-77
2023/10/17 07:21:15;;;;;;;26.48;14.35;;;;;;;;;;6220515;28;20040;-79
2023/10/17 07:23:56;;;;;;;18.40;9.73;;;;;;;;;;6240353;28;20048;-77
2023/10/17 07:26:58;;;;;;;20.95;9.85;;;;;;;;;;6234365;28;20041;-76
2023/10/17 07:30:03;;;;;;;20.13;11.00;;;;;;;;;;6242097;28;20052;-79
2023/10/17 07:33:07;;;;;;;18.65;9.80;;;;;;;;;;6238631;28;20041;-81
2023/10/17 07:36:16;;;;;;;17.80;8.32;;;;;;;;;;6215212;28;20048;-80
2023/10/17 07:39:24;;;;;;;16.77;8.20;;;;;;;;;;6227413;28;20114;-81
2023/10/17 07:42:31;;;;;;;20.75;8.25;;;;;;;;;;6228896;28;20049;-78
2023/10/17 07:45:40;;;;;;;14.90;7.47;;;;;;;;;;6252592;28;20513;-79
2023/10/17 07:48:48;;;;;;;25.50;13.13;;;;;;;;;;6226965;28;20523;-80
2023/10/17 07:51:51;;;;;;;20.88;11.52;;;;;;;;;;6250097;28;20107;-79
2023/10/17 07:54:57;;;;;;;15.17;7.63;;;;;;;;;;6248171;28;20045;-79
2023/10/17 07:58:06;;;;;;;12.73;7.30;;;;;;;;;;6254610;28;20056;-79
2023/10/17 08:01:08;;;;;;;12.75;7.00;;;;;;;;;;6236209;28;20075;-79
2023/10/17 08:04:53;;;;;;;12.73;6.57;;;;;;;;;;6247520;28;20041;-80
2023/10/17 08:07:35;;;;;;;11.23;5.95;;;;;;;;;;6234590;28;20052;-78
2023/10/17 08:10:38;;;;;;;13.20;6.65;;;;;;;;;;6223236;28;20040;-78
2023/10/17 08:13:40;;;;;;;12.38;6.43;;;;;;;;;;6237076;28;20073;-76
2023/10/17 08:16:43;;;;;;;12.82;6.80;;;;;;;;;;6249708;28;20132;-78
2023/10/17 08:23:09;;;;;;;13.00;6.95;;;;;;;;;;6173236;28;20119;-79
2023/10/17 08:26:12;;;;;;;15.27;6.90;;;;;;;;;;6234601;28;20501;-79
2023/10/17 08:29:13;;;;;;;11.47;6.37;;;;;;;;;;6236077;28;20053;-79
2023/10/17 08:35:36;;;;;;;9.45;5.55;;;;;;;;;;6245512;28;20110;-78
2023/10/17 08:38:40;;;;;;;8.07;4.53;;;;;;;;;;6224552;28;20053;-78
2023/10/17 08:41:41;;;;;;;;;;;;;;;;;;6242923;28;20101;-79
2023/10/17 08:44:46;;;;;;;9.88;4.22;;;;;;;;;;6244515;28;20386;-79
2023/10/17 08:47:50;;;;;;;8.15;4.97;;;;;;;;;;6216136;28;20052;-80
2023/10/17 08:50:55;;;;;;;7.95;4.38;;;;;;;;;;6241767;28;20040;-78
2023/10/17 08:53:58;;;;;;;7.85;5.55;;;;;;;;;;6229302;28;20041;-80
2023/10/17 08:57:01;;;;;;;8.33;5.50;;;;;;;;;;6223100;28;20049;-80
2023/10/17 09:03:35;;;;;;;9.68;5.03;;;;;;;;;;6245376;28;20128;-77
2023/10/17 09:06:48;;;;;;;9.02;4.68;;;;;;;;;;6251013;28;20049;-78
2023/10/17 09:09:54;;;;;;;8.27;4.10;;;;;;;;;;6249172;28;20045;-77
2023/10/17 09:16:17;;;;;;;5.85;3.75;;;;;;;;;;6231954;28;20100;-79
2023/10/17 09:19:20;;;;;;;7.35;3.60;;;;;;;;;;6241074;28;20046;-79
2023/10/17 09:22:23;;;;;;;6.85;4.03;;;;;;;;;;6247604;28;20076;-80
2023/10/17 09:25:26;;;;;;;5.97;3.80;;;;;;;;;;6247325;28;20536;-80
2023/10/17 09:28:28;;;;;;;9.52;6.60;;;;;;;;;;6254004;28;20123;-80
2023/10/17 09:31:30;;;;;;;13.23;7.07;;;;;;;;;;6257321;28;20049;-78
2023/10/17 09:34:32;;;;;;;4.82;3.35;;;;;;;;;;6240712;28;20468;-78
2023/10/17 09:37:37;;;;;;;16.55;10.27;;;;;;;;;;6259213;28;20083;-80
2023/10/17 09:40:39;;;;;;;5.28;3.55;;;;;;;;;;6207545;28;20795;-80
2023/10/17 09:43:51;;;;;;;7.88;4.25;;;;;;;;;;6248960;28;20048;-77
2023/10/17 09:46:56;;;;;;;6.40;3.70;;;;;;;;;;6242880;28;20044;-80
2023/10/17 09:50:03;;;;;;;6.40;3.70;;;;;;;;;;6229332;28;20048;-78
2023/10/17 09:53:14;;;;;;;4.50;2.90;;;;;;;;;;6245427;28;20049;-80
2023/10/17 09:56:21;;;;;;;7.35;3.63;;;;;;;;;;6239782;28;20712;-81
2023/10/17 09:59:27;;;;;;;8.93;5.07;;;;;;;;;;6239355;28;20130;-80
2023/10/17 10:02:34;;;;;;;4.20;2.90;;;;;;;;;;6248594;28;20048;-78
2023/10/17 10:05:36;;;;;;;4.43;3.13;;;;;;;;;;6230876;28;20064;-80
2023/10/17 10:08:38;;;;;;;5.15;2.70;;;;;;;;;;6231160;28;20055;-80
2023/10/17 10:11:49;;;;;;;3.22;2.35;;;;;;;;;;6234068;28;20037;-80
2023/10/17 10:14:51;;;;;;;4.10;2.63;;;;;;;;;;6250749;28;20071;-78
2023/10/17 10:17:53;;;;;;;5.72;2.25;;;;;;;;;;6251868;28;20051;-79
2023/10/17 10:20:58;;;;;;;4.32;2.17;;;;;;;;;;6233597;28;20041;-80
2023/10/17 10:24:00;;;;;;;4.93;3.22;;;;;;;;;;6247542;28;20052;-81
2023/10/17 10:27:08;;;;;;;3.65;2.45;;;;;;;;;;6229831;28;20566;-78
2023/10/17 10:30:32;;;;;;;3.40;2.13;;;;;;;;;;6255116;28;20044;-80
2023/10/17 10:33:35;;;;;;;3.70;2.38;;;;;;;;;;6214294;28;20048;-78
2023/10/17 10:36:37;;;;;;;3.25;2.40;;;;;;;;;;6238314;28;20048;-80
2023/10/17 10:39:39;;;;;;;5.97;2.22;;;;;;;;;;6226425;28;20041;-77
2023/10/17 10:43:04;;;;;;;2.90;2.35;;;;;;;;;;6227341;28;20558;-79
2023/10/17 10:46:08;;;;;;;3.53;2.60;;;;;;;;;;6246688;28;20565;-79
2023/10/17 10:49:10;;;;;;;6.03;4.43;;;;;;;;;;6245402;28;20517;-80
2023/10/17 10:52:12;;;;;;;19.67;10.20;;;;;;;;;;6224318;28;20048;-78
2023/10/17 10:55:14;;;;;;;8.57;4.40;;;;;;;;;;6241308;28;20185;-77
2023/10/17 10:58:18;;;;;;;26.45;12.43;;;;;;;;;;6248974;28;20037;-80
2023/10/17 11:01:21;;;;;;;22.83;10.52;;;;;;;;;;6254956;28;20182;-80
2023/10/17 11:04:23;;;;;;;16.65;6.88;;;;;;;;;;6233864;28;20045;-78
2023/10/17 11:07:28;;;;;;;38.88;15.73;;;;;;;;;;6231469;28;20091;-81
2023/10/17 11:10:31;;;;;;;11.85;4.65;;;;;;;;;;6243021;28;20053;-77
2023/10/17 11:13:38;;;;;;;3.88;2.60;;;;;;;;;;6237227;28;20041;-79
2023/10/17 11:16:40;;;;;;;2.35;2.00;;;;;;;;;;6236744;28;20673;-79
2023/10/17 11:19:42;;;;;;;13.88;5.57;;;;;;;;;;6245907;28;20245;-78
2023/10/17 11:22:46;;;;;;;8.40;4.30;;;;;;;;;;6227989;28;20472;-78
2023/10/17 11:25:49;;;;;;;17.00;7.20;;;;;;;;;;6224710;28;21160;-78
2023/10/17 11:28:54;;;;;;;5.53;2.40;;;;;;;;;;6246256;28;20065;-78
2023/10/17 11:31:59;;;;;;;7.05;3.95;;;;;;;;;;6251464;28;20067;-80
2023/10/17 11:35:06;;;;;;;7.35;3.67;;;;;;;;;;6251003;28;20230;-77
2023/10/17 11:38:21;;;;;;;3.72;3.00;;;;;;;;;;6241177;28;20044;-78
2023/10/17 11:41:59;;;;;;;8.82;4.47;;;;;;;;;;6228531;28;20045;-80
2023/10/17 11:44:54;;;;;;;8.45;3.90;;;;;;;;;;6235094;28;20119;-79
2023/10/17 11:47:57;;;;;;;18.00;8.02;;;;;;;;;;6250815;28;20045;-80
2023/10/17 11:51:18;;;;;;;7.72;3.30;;;;;;;;;;6223854;28;20037;-80
2023/10/17 11:54:22;;;;;;;5.70;2.70;;;;;;;;;;6242337;28;20048;-77
2023/10/17 11:57:35;;;;;;;9.63;5.40;;;;;;;;;;6252122;28;20051;-80
2023/10/17 12:00:37;;;;;;;3.83;2.40;;;;;;;;;;6250938;28;20053;-77
2023/10/17 12:03:38;;;;;;;4.78;3.20;;;;;;;;;;6219548;28;20045;-79
2023/10/17 12:06:40;;;;;;;5.18;2.58;;;;;;;;;;6236708;28;20430;-77
2023/10/17 12:09:42;;;;;;;23.85;7.80;;;;;;;;;;6216309;28;20099;-77
2023/10/17 12:12:44;;;;;;;74.97;16.25;;;;;;;;;;6236422;28;20638;-80
2023/10/17 12:15:46;;;;;;;38.90;10.40;;;;;;;;;;6247434;28;20041;-78
2023/10/17 12:18:48;;;;;;;36.70;11.93;;;;;;;;;;6214931;28;20042;-80
2023/10/17 12:21:50;;;;;;;36.50;12.15;;;;;;;;;;6230307;28;20744;-80
2023/10/17 12:24:51;;;;;;;15.32;5.53;;;;;;;;;;6234827;28;20076;-80
2023/10/17 12:27:56;;;;;;;5.15;3.10;;;;;;;;;;6236201;28;20083;-80
2023/10/17 12:30:58;;;;;;;15.10;6.72;;;;;;;;;;6236339;28;20042;-81
2023/10/17 12:34:00;;;;;;;4.40;2.75;;;;;;;;;;6230538;28;20626;-81
2023/10/17 12:37:03;;;;;;;4.07;3.13;;;;;;;;;;6236025;28;20503;-80
2023/10/17 12:40:13;;;;;;;4.82;3.13;;;;;;;;;;6240653;28;20530;-78
2023/10/17 12:43:16;;;;;;;3.65;2.75;;;;;;;;;;6236434;28;20044;-80
2023/10/17 12:46:18;;;;;;;4.25;2.90;;;;;;;;;;6249762;28;20045;-76
2023/10/17 12:49:19;;;;;;;3.45;2.60;;;;;;;;;;6242530;28;20423;-78
2023/10/17 12:52:23;;;;;;;3.60;2.55;;;;;;;;;;6240303;28;20049;-80
2023/10/17 12:55:24;;;;;;;5.07;2.50;;;;;;;;;;6241948;28;20392;-76
2023/10/17 12:58:29;;;;;;;5.10;2.50;;;;;;;;;;6231949;28;20096;-79
2023/10/17 13:01:31;;;;;;;4.95;2.60;;;;;;;;;;6244960;28;20041;-79
2023/10/17 13:04:33;;;;;;;4.20;2.78;;;;;;;;;;6234413;28;20045;-77
2023/10/17 13:07:40;;;;;;;3.83;2.60;;;;;;;;;;6239607;28;20052;-76
2023/10/17 13:10:43;;;;;;;3.50;2.45;;;;;;;;;;6240638;28;20128;-77
2023/10/17 13:13:44;;;;;;;5.15;2.70;;;;;;;;;;6251636;28;20645;-75
2023/10/17 13:16:46;;;;;;;4.20;2.42;;;;;;;;;;6254915;28;20051;-76
2023/10/17 13:19:51;;;;;;;3.63;2.40;;;;;;;;;;6239339;28;20068;-77
2023/10/17 13:22:53;;;;;;;3.95;2.38;;;;;;;;;;6243622;28;20453;-77
2023/10/17 13:25:54;;;;;;;4.22;2.78;;;;;;;;;;6246127;28;20525;-76
2023/10/17 13:28:56;;;;;;;3.47;2.75;;;;;;;;;;6237358;28;20041;-75
2023/10/17 13:31:58;;;;;;;3.33;2.78;;;;;;;;;;6200523;28;20056;-76
2023/10/17 13:35:00;;;;;;;3.95;2.60;;;;;;;;;;6214176;28;20048;-78
2023/10/17 13:38:02;;;;;;;3.42;2.40;;;;;;;;;;6241670;28;20073;-77
2023/10/17 13:41:15;;;;;;;3.97;2.40;;;;;;;;;;6242269;28;20129;-75
2023/10/17 13:44:17;;;;;;;3.95;2.60;;;;;;;;;;6250913;28;20073;-78
2023/10/17 13:47:20;;;;;;;4.37;3.10;;;;;;;;;;6248510;28;20048;-77
2023/10/17 13:50:23;;;;;;;6.25;3.03;;;;;;;;;;6243590;28;20049;-76
2023/10/17 13:53:24;;;;;;;5.22;2.75;;;;;;;;;;6243802;28;20128;-77
2023/10/17 13:56:27;;;;;;;6.68;2.70;;;;;;;;;;6252727;28;20094;-77
2023/10/17 13:59:46;;;;;;;4.50;2.90;;;;;;;;;;6233823;28;20041;-79
2023/10/17 14:02:50;;;;;;;3.63;2.47;;;;;;;;;;6244924;28;20040;-77
2023/10/17 14:05:52;;;;;;;;;;;;;;;;;;6250136;28;20129;-79
2023/10/17 14:08:59;;;;;;;4.82;2.40;;;;;;;;;;6253385;28;19975;-80
2023/10/17 14:12:02;;;;;;;4.80;2.38;;;;;;;;;;6253671;28;20072;-79
2023/10/17 14:15:04;;;;;;;3.85;2.85;;;;;;;;;;6248840;28;20044;-79
2023/10/17 14:18:16;;;;;;;5.70;2.60;;;;;;;;;;6229912;28;20076;-79
2023/10/17 14:24:38;;;;;;;2.72;2.20;;;;;;;;;;6250628;28;20036;-81
2023/10/17 14:27:41;;;;;;;4.15;2.60;;;;;;;;;;6254465;28;20097;-81
2023/10/17 14:30:43;;;;;;;4.82;2.80;;;;;;;;;;6239338;28;20515;-78
2023/10/17 14:33:45;;;;;;;5.70;3.50;;;;;;;;;;6255683;28;20067;-80
2023/10/17 14:36:47;;;;;;;4.90;2.50;;;;;;;;;;6254521;28;20121;-79
2023/10/17 14:39:51;;;;;;;4.53;2.72;;;;;;;;;;6239133;28;20041;-78
2023/10/17 14:42:53;;;;;;;4.07;2.33;;;;;;;;;;6239380;28;20040;-82
2023/10/17 14:45:55;;;;;;;3.13;2.45;;;;;;;;;;6244435;28;20064;-76
2023/10/17 14:48:57;;;;;;;4.30;2.95;;;;;;;;;;6230940;28;20131;-79
2023/10/17 14:51:58;;;;;;;5.53;3.40;;;;;;;;;;6237979;28;20207;-81
2023/10/17 14:55:02;;;;;;;4.53;2.35;;;;;;;;;;6239490;28;20068;-79
2023/10/17 14:58:06;;;;;;;4.18;2.50;;;;;;;;;;6223962;28;20055;-81
2023/10/17 15:01:08;;;;;;;2.88;2.17;;;;;;;;;;6252523;28;20041;-77
2023/10/17 15:04:10;;;;;;;2.83;2.10;;;;;;;;;;6232899;28;20048;-77
2023/10/17 15:07:13;;;;;;;4.07;2.50;;;;;;;;;;6231887;28;20048;-81
2023/10/17 15:10:15;;;;;;;3.87;2.80;;;;;;;;;;6244180;28;20053;-81
2023/10/17 15:13:17;;;;;;;2.67;2.47;;;;;;;;;;6213835;28;20828;-82
2023/10/17 15:16:19;;;;;;;3.73;2.53;;;;;;;;;;6253258;28;20446;-79
2023/10/17 15:19:21;;;;;;;3.90;2.50;;;;;;;;;;6234158;28;20614;-81
2023/10/17 15:22:23;;;;;;;4.50;2.72;;;;;;;;;;6255154;28;20477;-79
2023/10/17 15:25:25;;;;;;;3.58;2.58;;;;;;;;;;6245105;28;20140;-81
2023/10/17 15:28:26;;;;;;;3.67;2.72;;;;;;;;;;6225951;28;20053;-81
2023/10/17 15:31:28;;;;;;;4.22;2.60;;;;;;;;;;6250358;28;20454;-80
2023/10/17 15:34:32;;;;;;;4.20;2.58;;;;;;;;;;6238189;28;20064;-81
2023/10/17 15:37:34;;;;;;;6.05;3.65;;;;;;;;;;6246526;28;20056;-81
2023/10/17 15:40:36;;;;;;;5.63;3.70;;;;;;;;;;6248247;28;20045;-81
2023/10/17 15:43:39;;;;;;;4.97;3.10;;;;;;;;;;6228814;28;20052;-81
2023/10/17 15:46:41;;;;;;;4.82;2.92;;;;;;;;;;6223610;28;20104;-80
2023/10/17 15:49:44;;;;;;;4.30;3.10;;;;;;;;;;6253385;28;20103;-80
2023/10/17 15:52:49;;;;;;;;;;;;;;;;;;6236016;28;20045;-77
2023/10/17 15:55:52;;;;;;;5.50;3.60;;;;;;;;;;6248187;28;20054;-78
2023/10/17 15:58:55;;;;;;;6.55;3.78;;;;;;;;;;6245253;28;20052;-77
2023/10/17 16:01:56;;;;;;;7.07;4.95;;;;;;;;;;6232521;28;20049;-81
2023/10/17 16:04:58;;;;;;;6.18;4.18;;;;;;;;;;6241760;28;20136;-81
2023/10/17 16:08:00;;;;;;;5.10;2.90;;;;;;;;;;6242894;28;20040;-79
2023/10/17 16:11:02;;;;;;;6.13;3.22;;;;;;;;;;6219206;28;20124;-81
2023/10/17 16:14:04;;;;;;;7.10;3.58;;;;;;;;;;6217826;28;20042;-79
2023/10/17 16:17:07;;;;;;;5.10;2.67;;;;;;;;;;6255326;28;20650;-77
2023/10/17 16:20:13;;;;;;;4.07;2.70;;;;;;;;;;6239802;28;20735;-79
2023/10/17 16:23:17;;;;;;;8.10;3.00;;;;;;;;;;6243396;28;20056;-77
2023/10/17 16:26:19;;;;;;;4.47;2.50;;;;;;;;;;6251122;28;20049;-79
2023/10/17 16:29:21;;;;;;;6.18;3.90;;;;;;;;;;6242031;28;20042;-80
2023/10/17 16:32:23;;;;;;;7.63;4.57;;;;;;;;;;6237650;28;20048;-80
2023/10/17 16:35:24;;;;;;;5.45;4.10;;;;;;;;;;6244928;28;20056;-79
2023/10/17 16:38:28;;;;;;;7.15;5.28;;;;;;;;;;6220706;28;21401;-82
2023/10/17 16:41:30;;;;;;;7.70;4.93;;;;;;;;;;6232225;28;20053;-80
2023/10/17 16:44:32;;;;;;;8.55;5.47;;;;;;;;;;6235913;28;20049;-80
2023/10/17 16:47:34;;;;;;;14.50;9.07;;;;;;;;;;6243912;28;20759;-81
2023/10/17 16:50:36;;;;;;;12.35;6.72;;;;;;;;;;6250825;28;20037;-82
2023/10/17 16:53:38;;;;;;;7.80;6.00;;;;;;;;;;6238820;28;20048;-80
2023/10/17 16:56:40;;;;;;;11.65;7.07;;;;;;;;;;6195814;28;20082;-81
2023/10/17 16:59:44;;;;;;;26.65;15.40;;;;;;;;;;6246781;28;20135;-80
2023/10/17 17:02:48;;;;;;;28.35;15.75;;;;;;;;;;6237857;28;20057;-80
2023/10/17 17:05:50;;;;;;;17.40;10.25;;;;;;;;;;6228135;28;20053;-79
2023/10/17 17:08:56;;;;;;;15.52;8.90;;;;;;;;;;6225108;28;20128;-77
2023/10/17 17:11:58;;;;;;;15.10;8.68;;;;;;;;;;6219876;28;20415;-80
2023/10/17 17:15:00;;;;;;;12.80;8.75;;;;;;;;;;6209766;28;20414;-79
2023/10/17 17:18:02;;;;;;;8.38;5.47;;;;;;;;;;6243590;28;20048;-80
2023/10/17 17:21:24;;;;;;;39.90;19.42;;;;;;;;;;6208872;28;20109;-81
2023/10/17 17:24:26;;;;;;;20.55;12.18;;;;;;;;;;6238787;28;20053;-80
2023/10/17 17:27:31;;;;;;;16.90;10.65;;;;;;;;;;6244970;28;20497;-82
2023/10/17 17:30:35;;;;;;;25.00;17.27;;;;;;;;;;6231330;28;20049;-79
2023/10/17 17:33:37;;;;;;;20.67;13.98;;;;;;;;;;6224027;28;20057;-81
2023/10/17 17:36:39;;;;;;;18.08;11.77;;;;;;;;;;6243499;28;20045;-82
2023/10/17 17:39:40;;;;;;;18.75;11.38;;;;;;;;;;6234784;28;20045;-80
2023/10/17 17:42:42;;;;;;;17.17;11.48;;;;;;;;;;6231772;28;20097;-80
2023/10/17 17:45:44;;;;;;;10.25;8.27;;;;;;;;;;6248731;28;20056;-80
2023/10/17 17:48:46;;;;;;;14.13;7.25;;;;;;;;;;6251263;28;20104;-79
2023/10/17 17:51:48;;;;;;;15.73;11.43;;;;;;;;;;6242921;28;20373;-78
2023/10/17 17:54:50;;;;;;;17.90;11.93;;;;;;;;;;6231292;28;20045;-80
2023/10/17 17:57:51;;;;;;;16.13;12.05;;;;;;;;;;6234904;28;20041;-81
2023/10/17 18:00:54;;;;;;;11.75;8.85;;;;;;;;;;6214875;28;20049;-81
2023/10/17 18:03:56;;;;;;;19.08;12.93;;;;;;;;;;6221021;28;20426;-79
2023/10/17 18:07:18;;;;;;;17.52;10.55;;;;;;;;;;6227010;28;20053;-82
2023/10/17 18:10:21;;;;;;;16.60;9.25;;;;;;;;;;6276227;23;20044;-84
2023/10/17 18:13:23;;;;;;;;;;;;;;;;;;6279498;28;20044;-84
2023/10/17 18:16:26;;;;;;;20.77;13.25;;;;;;;;;;6268086;28;20398;-84
2023/10/17 18:19:28;;;;;;;16.55;10.63;;;;;;;;;;6263286;28;20064;-84
2023/10/17 18:22:30;;;;;;;29.02;14.95;;;;;;;;;;6262441;28;20055;-83
2023/10/17 18:25:36;;;;;;;16.15;10.93;;;;;;;;;;6282348;28;20128;-84
2023/10/17 18:28:38;;;;;;;17.13;10.70;;;;;;;;;;6284412;28;20891;-85
2023/10/17 18:31:40;;;;;;;26.20;14.38;;;;;;;;;;6248722;28;20044;-85
2023/10/17 18:34:41;;;;;;;35.55;16.85;;;;;;;;;;6281935;28;20054;-85
2023/10/17 18:37:43;;;;;;;41.97;19.30;;;;;;;;;;6280837;28;20488;-86
2023/10/17 18:40:46;;;;;;;46.60;19.40;;;;;;;;;;6263231;28;20178;-85
2023/10/17 18:43:47;;;;;;;31.67;16.10;;;;;;;;;;6272705;28;20052;-86
2023/10/17 18:46:51;;;;;;;22.08;12.45;;;;;;;;;;6262725;28;20067;-84
2023/10/17 18:49:53;;;;;;;24.67;13.13;;;;;;;;;;6261231;28;20049;-84
2023/10/17 18:52:55;;;;;;;21.52;13.27;;;;;;;;;;6266182;28;20139;-85
2023/10/17 18:56:00;;;;;;;19.00;12.68;;;;;;;;;;6268084;28;20045;-86
2023/10/17 18:59:05;;;;;;;22.08;14.02;;;;;;;;;;6264057;28;20137;-85
2023/10/17 19:02:07;;;;;;;13.75;9.18;;;;;;;;;;6266316;28;20049;-85
2023/10/17 19:05:11;;;;;;;14.23;7.85;;;;;;;;;;6282359;28;20047;-84
2023/10/17 19:08:12;;;;;;;;;;;;;;;;;;6263167;28;20049;-86
2023/10/17 19:11:14;;;;;;;13.68;8.20;;;;;;;;;;6264713;28;19948;-86
2023/10/17 19:14:16;;;;;;;13.93;8.18;;;;;;;;;;6267918;28;20055;-85
2023/10/17 19:17:18;;;;;;;13.55;8.45;;;;;;;;;;6265165;28;20524;-86
2023/10/17 19:20:20;;;;;;;13.60;7.97;;;;;;;;;;6265257;28;20070;-86
2023/10/17 19:23:23;;;;;;;16.85;10.13;;;;;;;;;;6265898;28;20048;-86
2023/10/17 19:26:24;;;;;;;15.40;9.20;;;;;;;;;;6248728;28;20059;-87
2023/10/17 19:29:27;;;;;;;16.42;9.07;;;;;;;;;;6255483;28;20049;-86
2023/10/17 19:32:29;;;;;;;19.37;11.07;;;;;;;;;;6282361;28;20045;-86
2023/10/17 19:35:32;;;;;;;17.42;10.05;;;;;;;;;;6256385;28;20052;-87
2023/10/17 19:38:35;;;;;;;15.07;9.50;;;;;;;;;;6282702;28;20048;-87
2023/10/17 19:41:36;;;;;;;16.10;9.35;;;;;;;;;;6283977;28;20059;-86
2023/10/17 19:44:39;;;;;;;15.13;8.52;;;;;;;;;;6268600;28;20067;-86
2023/10/17 19:47:40;;;;;;;18.80;10.40;;;;;;;;;;6258624;28;20052;-86
2023/10/17 19:50:43;;;;;;;19.70;10.32;;;;;;;;;;6242857;28;20486;-86
2023/10/17 19:53:48;;;;;;;17.70;10.25;;;;;;;;;;6282239;28;20048;-85
2023/10/17 19:56:49;;;;;;;19.55;10.23;;;;;;;;;;6284456;28;20049;-86
2023/10/17 19:59:52;;;;;;;15.25;8.43;;;;;;;;;;6262511;28;20490;-86
2023/10/17 20:02:55;;;;;;;14.18;7.78;;;;;;;;;;6281081;28;20044;-86
2023/10/17 20:05:57;;;;;;;14.23;7.10;;;;;;;;;;6257660;28;20525;-85
2023/10/17 20:09:00;;;;;;;9.77;6.32;;;;;;;;;;6265964;28;20040;-84
2023/10/17 20:12:02;;;;;;;9.25;5.55;;;;;;;;;;6275599;28;20045;-86
2023/10/17 20:15:10;;;;;;;11.85;6.40;;;;;;;;;;6248106;28;20045;-88
2023/10/17 20:18:13;;;;;;;10.30;6.13;;;;;;;;;;6283459;28;20112;-86